createdAt,value
2018-05-07T00:01:58.423Z,2.5
2018-05-07T00:04:58.457Z,2.9
2018-05-07T00:07:58.711Z,2.6
2018-05-07T00:10:58.677Z,3.2
2018-05-07T00:13:58.434Z,2.9
2018-05-07T00:16:58.417Z,2.5
2018-05-07T00:19:58.514Z,2.4
2018-05-07T00:22:58.585Z,2.9
2018-05-07T00:25:58.473Z,2.5
2018-05-07T00:28:58.661Z,2.4
2018-05-07T00:31:58.521Z,2.6
2018-05-07T00:34:58.533Z,2.8
2018-05-07T00:37:58.563Z,2.6
2018-05-07T00:40:58.660Z,2.9
2018-05-07T00:43:58.580Z,2.8
2018-05-07T00:46:58.585Z,3.1
2018-05-07T00:49:58.585Z,2.6
2018-05-07T00:52:58.448Z,2.4
2018-05-07T00:55:58.468Z,2.4
2018-05-07T00:58:58.426Z,2.5
2018-05-07T01:01:58.453Z,2.4
2018-05-07T01:04:58.809Z,2.4
2018-05-07T01:07:58.515Z,2.7
2018-05-07T01:10:58.549Z,2.9
2018-05-07T01:13:58.457Z,2.9
2018-05-07T01:16:58.658Z,2.9
2018-05-07T01:19:58.547Z,2.6
2018-05-07T01:22:58.461Z,2.4
2018-05-07T01:25:58.515Z,2.5
2018-05-07T01:28:58.692Z,2.3
2018-05-07T01:31:58.432Z,2.3
2018-05-07T01:34:58.561Z,2.3
2018-05-07T01:37:58.545Z,2.2
2018-05-07T01:40:58.593Z,2.1
2018-05-07T01:43:58.584Z,2
2018-05-07T01:46:58.607Z,2
2018-05-07T01:49:58.652Z,2.4
2018-05-07T01:52:58.542Z,2.3
2018-05-07T01:55:58.450Z,2.1
2018-05-07T01:58:58.605Z,2.3
2018-05-07T02:01:58.517Z,2.1
2018-05-07T02:04:58.408Z,2.2
2018-05-07T02:07:58.442Z,2
2018-05-07T02:10:58.489Z,2
2018-05-07T02:13:58.528Z,1.9
2018-05-07T02:16:58.360Z,2
2018-05-07T02:19:58.497Z,2.1
2018-05-07T02:22:58.525Z,2.2
2018-05-07T02:25:58.560Z,2.1
2018-05-07T02:28:58.589Z,1.9
2018-05-07T02:31:58.549Z,2.1
2018-05-07T02:34:58.464Z,2
2018-05-07T02:37:58.467Z,2
2018-05-07T02:40:58.411Z,1.9
2018-05-07T02:43:58.443Z,2
2018-05-07T02:46:58.590Z,2.1
2018-05-07T02:49:58.489Z,1.9
2018-05-07T02:52:58.418Z,1.9
2018-05-07T02:55:58.363Z,1.9
2018-05-07T02:58:58.593Z,1.8
2018-05-07T03:01:58.470Z,1.8
2018-05-07T03:04:58.482Z,1.9
2018-05-07T03:07:58.528Z,2
2018-05-07T03:10:58.422Z,1.9
2018-05-07T03:13:58.384Z,2.1
2018-05-07T03:16:58.688Z,2.3
2018-05-07T03:19:58.507Z,2
2018-05-07T03:22:58.697Z,1.9
2018-05-07T03:25:58.383Z,1.9
2018-05-07T03:28:58.412Z,2
2018-05-07T03:31:58.598Z,2.5
2018-05-07T03:34:58.507Z,2.4
2018-05-07T03:37:58.464Z,2.1
2018-05-07T03:40:58.412Z,1.9
2018-05-07T03:43:58.459Z,1.9
2018-05-07T06:02:42.758Z,1.8
2018-05-07T06:05:42.285Z,2.1
2018-05-07T06:08:42.444Z,1.8
2018-05-07T06:11:42.517Z,1.9
2018-05-07T06:14:44.366Z,1.9
2018-05-07T06:17:42.200Z,1.8
2018-05-07T06:20:42.370Z,1.7
2018-05-07T06:23:42.207Z,1.7
2018-05-07T06:26:42.363Z,1.7
2018-05-07T06:29:42.229Z,1.8
2018-05-07T06:32:42.363Z,1.8
2018-05-07T06:35:42.452Z,1.8
2018-05-07T06:38:42.540Z,1.8
2018-05-07T06:41:42.423Z,1.8
2018-05-07T06:44:42.277Z,1.8
2018-05-07T06:47:42.461Z,1.8
2018-05-07T06:50:42.301Z,1.7
2018-05-07T06:53:43.612Z,1.9
2018-05-07T06:56:42.308Z,2.1
2018-05-07T06:59:42.372Z,2
2018-05-07T07:02:44.996Z,1.9
2018-05-07T07:05:42.446Z,1.8
2018-05-07T07:08:43.003Z,2.1
2018-05-07T07:11:42.281Z,1.9
2018-05-07T07:14:42.347Z,1.9
2018-05-07T07:17:42.450Z,1.8
2018-05-07T07:20:42.290Z,1.8
2018-05-07T07:23:42.372Z,1.7
2018-05-07T07:26:42.474Z,1.7
2018-05-07T07:29:52.220Z,1.6
2018-05-07T07:32:42.379Z,1.7
2018-05-07T07:35:42.205Z,1.7
2018-05-07T07:38:42.777Z,1.8
2018-05-07T07:41:42.446Z,1.7
2018-05-07T07:44:42.381Z,1.6
2018-05-07T07:47:42.581Z,1.7
2018-05-07T07:50:42.451Z,1.7
2018-05-07T07:53:43.158Z,1.7
2018-05-07T07:56:42.366Z,1.7
2018-05-07T07:59:42.321Z,1.7
2018-05-07T08:02:42.317Z,1.7
2018-05-07T08:05:42.278Z,1.7
2018-05-07T08:08:42.228Z,1.7
2018-05-07T08:11:42.406Z,1.9
2018-05-07T08:14:42.384Z,1.8
2018-05-07T08:17:42.289Z,1.7
2018-05-07T08:20:42.241Z,1.7
2018-05-07T08:23:42.282Z,1.7
2018-05-07T08:26:42.301Z,1.7
2018-05-07T08:29:42.273Z,1.8
2018-05-07T08:32:42.342Z,1.8
2018-05-07T08:35:42.431Z,1.8
2018-05-07T08:38:42.241Z,1.7
2018-05-07T08:41:42.250Z,1.7
2018-05-07T08:44:42.307Z,1.8
2018-05-07T08:47:42.339Z,1.9
2018-05-07T08:50:42.177Z,1.8
2018-05-07T08:53:42.418Z,1.7
2018-05-07T08:56:42.204Z,1.8
2018-05-07T08:59:42.357Z,1.7
2018-05-07T09:02:42.382Z,1.7
2018-05-07T09:05:42.181Z,1.7
2018-05-07T09:08:42.420Z,1.8
2018-05-07T09:11:42.372Z,1.7
2018-05-07T09:14:42.181Z,1.7
2018-05-07T09:17:42.233Z,1.8
2018-05-07T09:20:42.410Z,1.7
2018-05-07T09:23:42.405Z,1.7
2018-05-07T09:26:42.366Z,1.6
2018-05-07T09:29:42.204Z,1.8
2018-05-07T09:32:42.179Z,1.7
2018-05-07T09:35:42.342Z,1.7
2018-05-07T09:38:42.414Z,1.7
2018-05-07T09:41:42.179Z,1.7
2018-05-07T09:44:42.466Z,1.7
2018-05-07T09:47:42.403Z,1.7
2018-05-07T09:50:42.247Z,1.7
2018-05-07T09:53:42.295Z,1.7
2018-05-07T09:56:42.751Z,1.7
2018-05-07T09:59:42.326Z,1.7
2018-05-07T10:02:42.284Z,1.7
2018-05-07T10:05:42.524Z,1.6
2018-05-07T10:08:42.268Z,1.7
2018-05-07T10:11:42.272Z,1.7
2018-05-07T10:14:42.205Z,1.7
2018-05-07T10:17:42.420Z,1.7
2018-05-07T10:20:42.301Z,1.6
2018-05-07T10:23:42.361Z,1.8
2018-05-07T10:26:42.117Z,1.7
2018-05-07T10:29:42.595Z,1.7
2018-05-07T10:32:42.344Z,1.7
2018-05-07T10:35:42.363Z,1.7
2018-05-07T10:38:42.236Z,1.8
2018-05-07T10:41:42.182Z,1.7
2018-05-07T10:44:42.349Z,1.7
2018-05-07T10:47:42.247Z,1.7
2018-05-07T10:50:42.280Z,1.7
2018-05-07T10:53:42.266Z,1.7
2018-05-07T10:56:42.429Z,1.7
2018-05-07T10:59:42.178Z,1.6
2018-05-07T11:02:42.257Z,1.7
2018-05-07T11:05:42.241Z,1.6
2018-05-07T11:08:42.381Z,1.6
2018-05-07T11:11:42.312Z,1.5
2018-05-07T11:14:42.260Z,1.6
2018-05-07T11:17:42.305Z,1.6
2018-05-07T11:20:42.197Z,1.6
2018-05-07T11:23:42.373Z,1.7
2018-05-07T11:26:42.201Z,2
2018-05-07T11:29:42.273Z,2.9
2018-05-07T11:32:42.304Z,3.1
2018-05-07T11:35:42.285Z,2.5
2018-05-07T11:38:42.192Z,2.2
2018-05-07T11:41:42.197Z,2.2
2018-05-07T11:44:42.168Z,2.1
2018-05-07T11:47:43.123Z,2.7
2018-05-07T11:50:42.299Z,3
2018-05-07T11:53:42.227Z,3.2
2018-05-07T11:56:42.195Z,2.7
2018-05-07T11:59:42.207Z,2.4
2018-05-07T12:02:42.867Z,2.3
2018-05-07T12:05:42.376Z,3
2018-05-07T12:08:42.322Z,3.4
2018-05-07T12:11:42.333Z,3.4
2018-05-07T12:14:42.139Z,4.8
2018-05-07T12:17:42.210Z,4.9
2018-05-07T12:20:42.328Z,3.7
2018-05-07T12:23:42.237Z,3.6
2018-05-07T12:26:42.228Z,2.9
2018-05-07T12:29:42.254Z,2.7
2018-05-07T12:32:42.056Z,3.1
2018-05-07T12:35:42.440Z,2.5
2018-05-07T12:38:42.206Z,2.6
2018-05-07T12:41:42.340Z,2.9
2018-05-07T12:44:42.202Z,3.1
2018-05-07T12:47:42.126Z,2.4
2018-05-07T12:50:42.179Z,2.5
2018-05-07T12:53:42.332Z,2.2
2018-05-07T12:56:42.183Z,2.8
2018-05-07T12:59:42.109Z,2.9
2018-05-07T13:02:42.180Z,3
2018-05-07T13:05:42.280Z,2.5
2018-05-07T13:08:42.286Z,2.1
2018-05-07T13:11:42.244Z,2.6
2018-05-07T13:14:42.257Z,2.4
2018-05-07T13:17:42.264Z,2.7
2018-05-07T13:20:42.337Z,2.2
2018-05-07T13:23:42.083Z,2
2018-05-07T13:26:42.208Z,2.6
2018-05-07T13:29:42.123Z,2.3
2018-05-07T13:32:42.143Z,2.7
2018-05-07T13:35:42.191Z,4
2018-05-07T13:38:42.167Z,3.8
2018-05-07T13:41:42.207Z,3.3
2018-05-07T13:44:42.177Z,3.3
2018-05-07T13:47:42.348Z,3.2
2018-05-07T13:50:42.399Z,4
2018-05-07T13:53:42.108Z,3.8
2018-05-07T13:56:42.368Z,3.1
2018-05-07T13:59:42.287Z,3.7
2018-05-07T14:02:43.115Z,4.2
2018-05-07T14:05:42.265Z,3.6
2018-05-07T14:08:42.214Z,3.3
2018-05-07T14:11:42.324Z,3.4
2018-05-07T14:14:42.402Z,3.3
2018-05-07T14:17:42.377Z,2.9
2018-05-07T14:20:42.191Z,2.4
2018-05-07T14:23:41.970Z,3.5
2018-05-07T14:26:42.177Z,3.1
2018-05-07T14:29:42.435Z,2.9
2018-05-07T14:32:42.169Z,2.6
2018-05-07T14:35:42.241Z,2.8
2018-05-07T14:38:42.955Z,3
2018-05-07T14:41:42.245Z,4.9
2018-05-07T14:44:42.187Z,4
2018-05-07T14:47:42.285Z,2.8
2018-05-07T14:50:42.390Z,2.6
2018-05-07T14:53:42.124Z,2.2
2018-05-07T14:56:42.277Z,2.2
2018-05-07T14:59:42.130Z,2.1
2018-05-07T15:02:42.357Z,2.8
2018-05-07T15:05:42.036Z,2.4
2018-05-07T15:08:42.140Z,2.1
2018-05-07T15:11:42.147Z,1.9
2018-05-07T15:14:42.234Z,2.2
2018-05-07T15:17:42.118Z,2.1
2018-05-07T15:20:42.138Z,2.1
2018-05-07T15:23:42.128Z,2.2
2018-05-07T15:26:42.281Z,2.1
2018-05-07T15:29:42.144Z,1.9
2018-05-07T15:32:42.130Z,2.1
2018-05-07T15:35:42.102Z,1.8
2018-05-07T15:38:42.023Z,1.8
2018-05-07T15:41:42.269Z,1.8
2018-05-07T15:44:42.340Z,1.8
2018-05-07T15:47:42.171Z,1.9
2018-05-07T15:50:42.240Z,1.8
2018-05-07T15:53:42.557Z,1.8
2018-05-07T15:56:42.186Z,1.7
2018-05-07T15:59:42.188Z,2.1
2018-05-07T16:02:42.523Z,2
2018-05-07T16:05:42.028Z,1.8
2018-05-07T16:08:42.966Z,2.3
2018-05-07T16:11:42.110Z,2.3
2018-05-07T16:14:42.142Z,2
2018-05-07T16:17:42.647Z,1.9
2018-05-07T16:20:43.160Z,1.8
2018-05-07T16:23:42.218Z,1.7
2018-05-07T16:26:42.426Z,1.7
2018-05-07T16:29:42.348Z,1.7
2018-05-07T16:32:42.352Z,1.8
2018-05-07T16:35:43.055Z,1.9
2018-05-07T16:38:42.427Z,2
2018-05-07T16:41:42.553Z,1.8
2018-05-07T16:44:42.143Z,1.8
2018-05-07T16:47:42.270Z,1.7
2018-05-07T16:50:42.437Z,2
2018-05-07T16:53:42.276Z,2
2018-05-07T16:56:42.194Z,2.5
2018-05-07T16:59:42.393Z,2.2
2018-05-07T17:02:42.133Z,2.8
2018-05-07T17:05:42.300Z,2.4
2018-05-07T17:08:42.113Z,2.4
2018-05-07T17:11:42.324Z,2.1
2018-05-07T17:14:42.261Z,2
2018-05-07T17:17:42.350Z,2.1
2018-05-07T17:20:42.251Z,2.4
2018-05-07T17:23:42.287Z,2.3
2018-05-07T17:26:42.373Z,2
2018-05-07T17:29:42.295Z,2.2
2018-05-07T17:32:42.215Z,2.2
2018-05-07T17:35:42.283Z,2.3
2018-05-07T17:38:42.413Z,2.2
2018-05-07T17:41:42.257Z,2
2018-05-07T17:44:42.187Z,1.9
2018-05-07T17:47:42.299Z,2.3
2018-05-07T17:50:42.194Z,2.8
2018-05-07T17:53:42.180Z,2.3
2018-05-07T17:56:42.035Z,2
2018-05-07T17:59:42.238Z,1.9
2018-05-07T18:02:42.229Z,1.7
2018-05-07T18:05:42.233Z,1.7
2018-05-07T18:08:42.350Z,1.7
2018-05-07T18:11:42.200Z,1.7
2018-05-07T18:14:42.131Z,2.1
2018-05-07T18:17:42.433Z,1.8
2018-05-07T18:20:42.323Z,2.1
2018-05-07T18:23:42.164Z,2
2018-05-07T18:26:42.189Z,1.8
2018-05-07T18:29:42.225Z,1.7
2018-05-07T18:32:42.362Z,1.7
2018-05-07T18:35:42.304Z,1.7
2018-05-07T18:38:42.310Z,1.7
2018-05-07T18:41:42.211Z,1.7
2018-05-07T18:44:42.255Z,1.8
2018-05-07T18:47:42.289Z,1.7
2018-05-07T18:50:42.335Z,1.7
2018-05-07T18:53:42.464Z,1.6
2018-05-07T18:56:42.403Z,1.7
2018-05-07T18:59:42.161Z,1.7
2018-05-07T19:02:42.449Z,3.4
2018-05-07T19:05:42.201Z,4.1
2018-05-07T19:08:42.271Z,5.1
2018-05-07T19:11:42.316Z,5.5
2018-05-07T19:14:42.324Z,5.4
2018-05-07T19:17:42.346Z,5.4
2018-05-07T19:20:42.447Z,6.6
2018-05-07T19:23:42.554Z,5.6
2018-05-07T19:26:42.387Z,5.5
2018-05-07T19:29:42.281Z,4.5
2018-05-07T19:32:42.164Z,5.7
2018-05-07T19:35:42.236Z,6.3
2018-05-07T19:38:42.285Z,6
2018-05-07T19:41:42.201Z,5.8
2018-05-07T19:44:42.145Z,4.4
2018-05-07T19:47:42.352Z,4.4
2018-05-07T19:50:42.540Z,4.4
2018-05-07T19:53:42.037Z,3.8
2018-05-07T19:56:42.361Z,4.2
2018-05-07T19:59:42.285Z,4.7
2018-05-07T20:02:42.342Z,5.1
2018-05-07T20:05:42.253Z,4.4
2018-05-07T20:08:42.263Z,5.3
2018-05-07T20:11:42.288Z,5.1
2018-05-07T20:14:42.399Z,5
2018-05-07T20:17:42.194Z,4.5
2018-05-07T20:20:42.179Z,5.8
2018-05-07T20:23:42.301Z,5.7
2018-05-07T20:26:42.184Z,4.4
2018-05-07T20:29:42.337Z,4
2018-05-07T20:32:42.463Z,4.8
2018-05-07T20:35:42.117Z,4.5
2018-05-07T20:38:42.280Z,4.5
2018-05-07T20:41:42.027Z,3.8
2018-05-07T20:44:42.116Z,3.1
2018-05-07T20:47:42.318Z,3
2018-05-07T20:50:42.084Z,3.4
2018-05-07T20:53:42.056Z,3.1
2018-05-07T20:56:42.310Z,3.9
2018-05-07T20:59:42.089Z,4.3
2018-05-07T21:02:42.144Z,4.4
2018-05-07T21:05:42.158Z,3.4
2018-05-07T21:08:42.275Z,3.1
2018-05-07T21:11:42.262Z,2.6
2018-05-07T21:14:42.146Z,3.4
2018-05-07T21:17:42.116Z,3
2018-05-07T21:20:42.319Z,2.9
2018-05-07T21:23:42.304Z,2.8
2018-05-07T21:26:42.074Z,2.9
2018-05-07T21:29:42.223Z,2.6
2018-05-07T21:32:42.347Z,2.7
2018-05-07T21:35:43.154Z,3.1
2018-05-07T21:38:42.035Z,3.2
2018-05-07T21:41:42.162Z,2.8
2018-05-07T21:44:42.164Z,2.9
2018-05-07T21:47:42.011Z,2.6
2018-05-07T21:50:42.113Z,2.7
2018-05-07T21:53:42.070Z,2.4
2018-05-07T21:56:42.123Z,2.1
2018-05-07T21:59:42.234Z,2.4
2018-05-07T22:02:42.195Z,2.5
2018-05-07T22:05:42.128Z,2.5
2018-05-07T22:08:42.188Z,3.2
2018-05-07T22:11:42.133Z,3.5
2018-05-07T22:14:42.250Z,3.1
2018-05-07T22:17:42.068Z,2.8
2018-05-07T22:20:42.288Z,2.9
2018-05-07T22:23:42.119Z,2.6
2018-05-07T22:26:42.306Z,2.4
2018-05-07T22:29:42.216Z,2.8
2018-05-07T22:32:42.075Z,2.8
2018-05-07T22:35:42.304Z,3.2
2018-05-07T22:38:42.286Z,2.8
2018-05-07T22:41:42.131Z,2.6
2018-05-07T22:44:41.985Z,2.6
2018-05-07T22:47:42.377Z,3.1
2018-05-07T22:50:42.233Z,2.5
2018-05-07T22:53:42.209Z,2.6
2018-05-07T22:56:42.200Z,3
2018-05-07T22:59:42.324Z,2.8
2018-05-07T23:02:52.078Z,2.3
2018-05-07T23:05:41.999Z,3
2018-05-07T23:08:42.115Z,2.6
2018-05-07T23:11:42.092Z,2.3
2018-05-07T23:14:42.303Z,2.1
2018-05-07T23:17:42.250Z,1.9
2018-05-07T23:20:42.189Z,2.1
2018-05-07T23:23:41.979Z,2.1
2018-05-07T23:26:42.022Z,2.5
2018-05-07T23:29:42.212Z,2.1
2018-05-07T23:32:42.225Z,2.5
2018-05-07T23:35:42.187Z,2.2
2018-05-07T23:38:42.123Z,2.4
2018-05-07T23:41:42.118Z,2.6
2018-05-07T23:44:42.167Z,2.5
2018-05-07T23:47:41.970Z,3.2
2018-05-07T23:50:42.205Z,2.9
2018-05-07T23:53:42.009Z,2.3
2018-05-07T23:56:42.232Z,2.1
2018-05-07T23:59:42.079Z,2.2
